Share

Walnut Ridge Regional, AR

Rural Ravenden Springs (KARRAVEN1) Elev 605 ft | 36.31 °N, 91.20 °W | Change Station

Current weather conditions updated 5 seconds ago

Clear
Clear
80.2 °F
Feels Like 79 °F
N
4.9
Wind Variable Wind from West
Gusts 5.8 mph
Sunrise 6:23 AM
Sunset 7:41 PM
Moon Waning Gibbous

Today is forecast to be Warmer than yesterday. Chance of late night showers tonight.

Pressure 30.16 in
Visibility 10.0 miles
Clouds
Heat Index 79 °F
Dew Point 42 °F
Humidity 26%
Rainfall 0.00 in
Snow Depth Not available.
UV Not available.
Pollen 9.70 out of 12
Air Quality Not available.
Flu Activity Sporadic
METAR K4M9 201855Z AUTO 23004KT 10SM 25/06 A3016 RMK AO2

More Conditions Fewer Conditions

Pressure 30.16 in
Visibility 10.0 miles
Clouds
Heat Index 79 °F
Dew Point 42 °F
Humidity 26%
Rainfall 0.00 in
Snow Depth Not available.
UV Not available.
Pollen 9.70 out of 12
Air Quality Not available.
Flu Activity Sporadic
METAR K4M9 201855Z AUTO 23004KT 10SM 25/06 A3016 RMK AO2

More Conditions Fewer Conditions

10-Day Weather Forecast

Almanac

Astronomy

Apr. 20, 2014 Rise Set
Actual Time 6:23 AM CDT 7:41 PM CDT
Civil Twilight 5:57 AM CDT 8:08 PM CDT
Nautical Twilight 5:25 AM CDT 8:40 PM CDT
Astronomical Twilight 4:51 AM CDT 9:14 PM CDT
Moon 12:18 AM CDT 10:48 AM CDT
Length of Visible Light 14h 11m
Length of Day
13h 17m
Tomorrow will be 2m 8s longer.
Waning Gibbous, 67% of the Moon is Illuminated
Today
Waning Gibbous
Apr 22
Last Quarter
Apr 29
New
May 6
First Quarter
May 14
Full

Today's Extremes

State Highs State Lows

Community

  • Morning Sun
    Morning Sun
  • after rain
    after rain
  • Columbine
    Columbine
  • Easter Sunrise
    Easter Sunrise
  • Easter Eve - The Promise - Lake Palestine, TX
    Easter Eve - The Promise - Lake Palestine, TX

WunderPhotos

Upload Photos

1,703,311 photos uploaded!

WunderBlogs® & News

Nearby

Snow Depth

Station Depth Elevation
No new snow has been reported.

Coastal Water Temperatures

Place Temperature
No Stations Reporting

Earthquake Activity

City Distance Mag. Time & Date
No recent earthquake activity has been reported nearby.
Minimum magnitude displayed is 2.5.

Nearby Weather Stations

Station Location Temp. Heat Index Dew Point Humidity Wind Precip. Elev Updated Type
MesoWest OKEAN , O'Kean, AR 75 °F 73 °F - - North  at  - 0.00 in / hr 274 ft 11:40 AM CDT MADIS
Rural Ravenden Springs, Ravenden Springs, AR 80.2 °F 79 °F 42 °F 26% West  at  4.9 mph 0.00 in / hr 605 ft 2:05 PM CDT Rapid Fire
MesoWest BETHEL , Brookland, AR 79 °F 77 °F - - North  at  - 0.00 in / hr 288 ft 1:15 PM CDT MADIS

Show More Stations Show Fewer Stations

What do you think?

We're not finished. Please let us know what you like, what you don't like, and what you are still missing.